Rural Valley, Pennsylvania
Current Conditions -  °F | °C
As of 2:15 PM on Monday 22 Dec 2014 (Local Time) from KIDI Reporting Station
Overcast Overcast  
Wind Chill: 35°   Ceiling: 4000
Heat Index: 41°   Visibility: 10mi
Dew Point: 28°   Wind: 10mph
Humidity: 61%   Direction: 140°SE
Pressure: 30.09"   Gusts: NA
Location:  40.8°N, 79.31°W
Report Text: KIDI 221915Z AUTO 14009KT 10SM OVC040 05/M02 A3009 RMK A01
Loading
Personal Weather Stations






























Interactive Weather Map New forecast layout! Learn more

10-Day Weather Forecast

Advertisements
Track Severe Weather on mobile